sensor_id;sensor_type;location;lat;lon;timestamp;pressure;altitude;pressure_sealevel;temperature
45034;BMP280;30771;47.988;-4.186;2022-10-24T00:00:30;99027.53;;;14.65
45034;BMP280;30771;47.988;-4.186;2022-10-24T00:02:56;99003.94;;;14.53
45034;BMP280;30771;47.988;-4.186;2022-10-24T00:05:21;99022.50;;;14.63
45034;BMP280;30771;47.988;-4.186;2022-10-24T00:07:48;99024.66;;;14.66
45034;BMP280;30771;47.988;-4.186;2022-10-24T00:10:13;99019.59;;;14.65
45034;BMP280;30771;47.988;-4.186;2022-10-24T00:12:39;99019.84;;;14.58
45034;BMP280;30771;47.988;-4.186;2022-10-24T00:15:05;99024.09;;;14.59
45034;BMP280;30771;47.988;-4.186;2022-10-24T00:17:31;99016.16;;;14.54
45034;BMP280;30771;47.988;-4.186;2022-10-24T00:19:57;99027.53;;;14.55
45034;BMP280;30771;47.988;-4.186;2022-10-24T00:22:22;99027.25;;;14.51
45034;BMP280;30771;47.988;-4.186;2022-10-24T00:24:47;99021.94;;;14.46
45034;BMP280;30771;47.988;-4.186;2022-10-24T00:27:12;99016.63;;;14.41
45034;BMP280;30771;47.988;-4.186;2022-10-24T00:29:38;99006.31;;;14.34
45034;BMP280;30771;47.988;-4.186;2022-10-24T00:32:03;99013.19;;;14.35
45034;BMP280;30771;47.988;-4.186;2022-10-24T00:34:28;99019.00;;;14.32
45034;BMP280;30771;47.988;-4.186;2022-10-24T00:36:54;99010.78;;;14.34
45034;BMP280;30771;47.988;-4.186;2022-10-24T00:39:19;99017.41;;;14.31
45034;BMP280;30771;47.988;-4.186;2022-10-24T00:41:45;99017.16;;;14.33
45034;BMP280;30771;47.988;-4.186;2022-10-24T00:44:26;99020.56;;;14.33
45034;BMP280;30771;47.988;-4.186;2022-10-24T00:49:29;99021.63;;;14.27
45034;BMP280;30771;47.988;-4.186;2022-10-24T00:51:59;99031.97;;;14.29
45034;BMP280;30771;47.988;-4.186;2022-10-24T00:54:26;99036.75;;;14.27
45034;BMP280;30771;47.988;-4.186;2022-10-24T00:57:02;99033.00;;;14.28
45034;BMP280;30771;47.988;-4.186;2022-10-24T00:59:29;99024.28;;;14.27
45034;BMP280;30771;47.988;-4.186;2022-10-24T01:01:55;99027.22;;;14.31
45034;BMP280;30771;47.988;-4.186;2022-10-24T01:04:20;99030.66;;;14.31
45034;BMP280;30771;47.988;-4.186;2022-10-24T01:09:30;99028.81;;;14.32
45034;BMP280;30771;47.988;-4.186;2022-10-24T01:12:06;99025.88;;;14.33
45034;BMP280;30771;47.988;-4.186;2022-10-24T01:14:52;99020.31;;;14.35
45034;BMP280;30771;47.988;-4.186;2022-10-24T01:17:41;99026.97;;;14.37
45034;BMP280;30771;47.988;-4.186;2022-10-24T01:23:06;99022.47;;;14.43
45034;BMP280;30771;47.988;-4.186;2022-10-24T01:31:09;99010.88;;;14.59
45034;BMP280;30771;47.988;-4.186;2022-10-24T01:33:42;99004.00;;;14.68
45034;BMP280;30771;47.988;-4.186;2022-10-24T01:36:15;98997.91;;;14.73
45034;BMP280;30771;47.988;-4.186;2022-10-24T01:38:57;98995.25;;;14.78
45034;BMP280;30771;47.988;-4.186;2022-10-24T01:41:26;98984.91;;;14.76
45034;BMP280;30771;47.988;-4.186;2022-10-24T01:43:55;98982.28;;;14.76
45034;BMP280;30771;47.988;-4.186;2022-10-24T01:46:27;98983.03;;;14.77
45034;BMP280;30771;47.988;-4.186;2022-10-24T01:49:05;98976.97;;;14.71
45034;BMP280;30771;47.988;-4.186;2022-10-24T01:51:32;98960.81;;;14.73
45034;BMP280;30771;47.988;-4.186;2022-10-24T01:54:00;98964.75;;;14.80
45034;BMP280;30771;47.988;-4.186;2022-10-24T01:56:26;98963.44;;;14.78
45034;BMP280;30771;47.988;-4.186;2022-10-24T01:58:51;98953.38;;;14.80
45034;BMP280;30771;47.988;-4.186;2022-10-24T02:01:21;98964.50;;;14.82
45034;BMP280;30771;47.988;-4.186;2022-10-24T02:03:55;98964.75;;;14.80
45034;BMP280;30771;47.988;-4.186;2022-10-24T02:06:25;98957.88;;;14.84
45034;BMP280;30771;47.988;-4.186;2022-10-24T02:08:56;98960.81;;;14.83
45034;BMP280;30771;47.988;-4.186;2022-10-24T02:11:22;98967.13;;;14.87
45034;BMP280;30771;47.988;-4.186;2022-10-24T02:13:52;98981.19;;;14.97
45034;BMP280;30771;47.988;-4.186;2022-10-24T02:16:19;98970.59;;;14.97
45034;BMP280;30771;47.988;-4.186;2022-10-24T02:18:46;98970.31;;;14.99
45034;BMP280;30771;47.988;-4.186;2022-10-24T02:21:23;98980.66;;;15.05
45034;BMP280;30771;47.988;-4.186;2022-10-24T02:24:07;98985.16;;;15.10
45034;BMP280;30771;47.988;-4.186;2022-10-24T02:26:55;98974.06;;;15.13
45034;BMP280;30771;47.988;-4.186;2022-10-24T02:29:41;98971.38;;;15.18
45034;BMP280;30771;47.988;-4.186;2022-10-24T02:32:18;98966.59;;;15.20
45034;BMP280;30771;47.988;-4.186;2022-10-24T02:34:46;98962.63;;;15.22
45034;BMP280;30771;47.988;-4.186;2022-10-24T02:37:13;98947.25;;;15.24
45034;BMP280;30771;47.988;-4.186;2022-10-24T02:39:40;98961.78;;;15.32
45034;BMP280;30771;47.988;-4.186;2022-10-24T02:42:07;98939.78;;;15.31
45034;BMP280;30771;47.988;-4.186;2022-10-24T02:44:33;98941.38;;;15.37
45034;BMP280;30771;47.988;-4.186;2022-10-24T02:47:01;98934.97;;;15.38
45034;BMP280;30771;47.988;-4.186;2022-10-24T02:49:28;98927.56;;;15.40
45034;BMP280;30771;47.988;-4.186;2022-10-24T02:51:53;98918.56;;;15.41
45034;BMP280;30771;47.988;-4.186;2022-10-24T02:54:19;98929.66;;;15.48
45034;BMP280;30771;47.988;-4.186;2022-10-24T02:56:48;98923.81;;;15.51
45034;BMP280;30771;47.988;-4.186;2022-10-24T02:59:15;98924.06;;;15.50
45034;BMP280;30771;47.988;-4.186;2022-10-24T03:01:41;98902.13;;;15.39
45034;BMP280;30771;47.988;-4.186;2022-10-24T03:04:06;98931.78;;;15.51
45034;BMP280;30771;47.988;-4.186;2022-10-24T03:06:31;98924.06;;;15.50
45034;BMP280;30771;47.988;-4.186;2022-10-24T03:08:57;98928.56;;;15.54
45034;BMP280;30771;47.988;-4.186;2022-10-24T03:11:22;98906.31;;;15.45
45034;BMP280;30771;47.988;-4.186;2022-10-24T03:13:47;98932.28;;;15.53
45034;BMP280;30771;47.988;-4.186;2022-10-24T03:16:13;98930.44;;;15.54
45034;BMP280;30771;47.988;-4.186;2022-10-24T03:18:38;98933.34;;;15.52
45034;BMP280;30771;47.988;-4.186;2022-10-24T03:21:04;98921.66;;;15.53
45034;BMP280;30771;47.988;-4.186;2022-10-24T03:23:29;98931.47;;;15.53
45034;BMP280;30771;47.988;-4.186;2022-10-24T03:25:55;98925.38;;;15.47
45034;BMP280;30771;47.988;-4.186;2022-10-24T03:28:21;98940.25;;;15.53
45034;BMP280;30771;47.988;-4.186;2022-10-24T03:30:46;98944.50;;;15.49
45034;BMP280;30771;47.988;-4.186;2022-10-24T03:33:11;98943.72;;;15.49
45034;BMP280;30771;47.988;-4.186;2022-10-24T03:35:37;98939.22;;;15.44
45034;BMP280;30771;47.988;-4.186;2022-10-24T03:38:02;98944.00;;;15.42
45034;BMP280;30771;47.988;-4.186;2022-10-24T03:40:27;98954.31;;;15.49
45034;BMP280;30771;47.988;-4.186;2022-10-24T03:42:53;98960.44;;;15.49
45034;BMP280;30771;47.988;-4.186;2022-10-24T03:45:18;98963.06;;;15.49
45034;BMP280;30771;47.988;-4.186;2022-10-24T03:47:43;98969.16;;;15.50
45034;BMP280;30771;47.988;-4.186;2022-10-24T03:50:08;98975.53;;;15.49
45034;BMP280;30771;47.988;-4.186;2022-10-24T03:52:34;98974.22;;;15.51
45034;BMP280;30771;47.988;-4.186;2022-10-24T03:54:59;98983.75;;;15.52
45034;BMP280;30771;47.988;-4.186;2022-10-24T03:57:24;98969.44;;;15.48
45034;BMP280;30771;47.988;-4.186;2022-10-24T03:59:49;98977.13;;;15.50
45034;BMP280;30771;47.988;-4.186;2022-10-24T04:02:15;98968.94;;;15.46
45034;BMP280;30771;47.988;-4.186;2022-10-24T04:04:40;98982.41;;;15.50
45034;BMP280;30771;47.988;-4.186;2022-10-24T04:07:05;98963.91;;;15.45
45034;BMP280;30771;47.988;-4.186;2022-10-24T04:09:31;98967.09;;;15.47
45034;BMP280;30771;47.988;-4.186;2022-10-24T04:11:56;98971.56;;;15.51
45034;BMP280;30771;47.988;-4.186;2022-10-24T04:14:21;98976.88;;;15.51
45034;BMP280;30771;47.988;-4.186;2022-10-24T04:16:47;98967.31;;;15.45
45034;BMP280;30771;47.988;-4.186;2022-10-24T04:19:12;98977.38;;;15.53
45034;BMP280;30771;47.988;-4.186;2022-10-24T04:21:37;98982.41;;;15.50
45034;BMP280;30771;47.988;-4.186;2022-10-24T04:24:03;98977.91;;;15.50
45034;BMP280;30771;47.988;-4.186;2022-10-24T04:26:29;98977.91;;;15.55
45034;BMP280;30771;47.988;-4.186;2022-10-24T04:28:54;98988.50;;;15.55
45034;BMP280;30771;47.988;-4.186;2022-10-24T04:31:19;98981.09;;;15.57
45034;BMP280;30771;47.988;-4.186;2022-10-24T04:33:45;98984.00;;;15.56
45034;BMP280;30771;47.988;-4.186;2022-10-24T04:36:10;98991.16;;;15.60
45034;BMP280;30771;47.988;-4.186;2022-10-24T04:38:36;98992.22;;;15.65
45034;BMP280;30771;47.988;-4.186;2022-10-24T04:41:01;98996.44;;;15.66
45034;BMP280;30771;47.988;-4.186;2022-10-24T04:43:26;98976.56;;;15.53
45034;BMP280;30771;47.988;-4.186;2022-10-24T04:45:52;99002.28;;;15.63
45034;BMP280;30771;47.988;-4.186;2022-10-24T04:48:17;99005.75;;;15.63
45034;BMP280;30771;47.988;-4.186;2022-10-24T04:50:43;99000.44;;;15.58
45034;BMP280;30771;47.988;-4.186;2022-10-24T04:53:09;99012.63;;;15.69
45034;BMP280;30771;47.988;-4.186;2022-10-24T04:55:35;99017.41;;;15.67
45034;BMP280;30771;47.988;-4.186;2022-10-24T04:58:01;99006.53;;;15.58
45034;BMP280;30771;47.988;-4.186;2022-10-24T05:00:27;99031.47;;;15.68
45034;BMP280;30771;47.988;-4.186;2022-10-24T05:02:52;99032.78;;;15.65
45034;BMP280;30771;47.988;-4.186;2022-10-24T05:05:18;99015.84;;;15.56
45034;BMP280;30771;47.988;-4.186;2022-10-24T05:07:43;99035.44;;;15.60
45034;BMP280;30771;47.988;-4.186;2022-10-24T05:10:09;99049.78;;;15.59
45034;BMP280;30771;47.988;-4.186;2022-10-24T05:12:35;99050.84;;;15.58
45034;BMP280;30771;47.988;-4.186;2022-10-24T05:15:00;99061.75;;;15.56
45034;BMP280;30771;47.988;-4.186;2022-10-24T05:17:26;99078.16;;;15.58
45034;BMP280;30771;47.988;-4.186;2022-10-24T05:19:51;99086.13;;;15.58
45034;BMP280;30771;47.988;-4.186;2022-10-24T05:22:17;99095.16;;;15.57
45034;BMP280;30771;47.988;-4.186;2022-10-24T05:24:42;99091.44;;;15.53
45034;BMP280;30771;47.988;-4.186;2022-10-24T05:27:07;99103.41;;;15.51
45034;BMP280;30771;47.988;-4.186;2022-10-24T05:29:33;99125.66;;;15.55
45034;BMP280;30771;47.988;-4.186;2022-10-24T05:31:58;99128.06;;;15.51
45034;BMP280;30771;47.988;-4.186;2022-10-24T05:34:23;99123.59;;;15.47
45034;BMP280;30771;47.988;-4.186;2022-10-24T05:36:50;99145.56;;;15.52
45034;BMP280;30771;47.988;-4.186;2022-10-24T05:39:15;99130.75;;;15.46
45034;BMP280;30771;47.988;-4.186;2022-10-24T05:41:40;99143.19;;;15.51
45034;BMP280;30771;47.988;-4.186;2022-10-24T05:44:06;99150.34;;;15.50
45034;BMP280;30771;47.988;-4.186;2022-10-24T05:46:31;99159.38;;;15.54
45034;BMP280;30771;47.988;-4.186;2022-10-24T05:48:56;99159.63;;;15.53
45034;BMP280;30771;47.988;-4.186;2022-10-24T05:51:21;99163.59;;;15.50
45034;BMP280;30771;47.988;-4.186;2022-10-24T05:53:47;99158.06;;;15.47
45034;BMP280;30771;47.988;-4.186;2022-10-24T05:56:12;99168.91;;;15.55
45034;BMP280;30771;47.988;-4.186;2022-10-24T05:58:37;99171.03;;;15.53
45034;BMP280;30771;47.988;-4.186;2022-10-24T06:01:03;99177.41;;;15.57
45034;BMP280;30771;47.988;-4.186;2022-10-24T06:03:28;99187.75;;;15.54
45034;BMP280;30771;47.988;-4.186;2022-10-24T06:05:53;99181.13;;;15.51
45034;BMP280;30771;47.988;-4.186;2022-10-24T06:08:19;99186.69;;;15.55
45034;BMP280;30771;47.988;-4.186;2022-10-24T06:10:48;99182.72;;;15.52
45034;BMP280;30771;47.988;-4.186;2022-10-24T06:13:14;99202.06;;;15.58
45034;BMP280;30771;47.988;-4.186;2022-10-24T06:15:41;99188.56;;;15.49
45034;BMP280;30771;47.988;-4.186;2022-10-24T06:18:06;99198.59;;;15.47
45034;BMP280;30771;47.988;-4.186;2022-10-24T06:20:31;99193.28;;;15.47
45034;BMP280;30771;47.988;-4.186;2022-10-24T06:22:57;99199.94;;;15.50
45034;BMP280;30771;47.988;-4.186;2022-10-24T06:25:22;99195.72;;;15.49
45034;BMP280;30771;47.988;-4.186;2022-10-24T06:27:47;99190.94;;;15.51
45034;BMP280;30771;47.988;-4.186;2022-10-24T06:30:13;99192.56;;;15.57
45034;BMP280;30771;47.988;-4.186;2022-10-24T06:32:39;99186.16;;;15.53
45034;BMP280;30771;47.988;-4.186;2022-10-24T06:35:05;99184.03;;;15.55
45034;BMP280;30771;47.988;-4.186;2022-10-24T06:37:31;99167.88;;;15.51
45034;BMP280;30771;47.988;-4.186;2022-10-24T06:39:56;99190.41;;;15.59
45034;BMP280;30771;47.988;-4.186;2022-10-24T06:42:22;99177.69;;;15.56
45034;BMP280;30771;47.988;-4.186;2022-10-24T06:44:47;99182.44;;;15.54
45034;BMP280;30771;47.988;-4.186;2022-10-24T06:47:13;99186.69;;;15.60
45034;BMP280;30771;47.988;-4.186;2022-10-24T06:49:38;99173.19;;;15.51
45034;BMP280;30771;47.988;-4.186;2022-10-24T06:52:03;99186.44;;;15.62
45034;BMP280;30771;47.988;-4.186;2022-10-24T06:54:29;99183.50;;;15.58
45034;BMP280;30771;47.988;-4.186;2022-10-24T06:56:54;99173.97;;;15.57
45034;BMP280;30771;47.988;-4.186;2022-10-24T06:59:19;99187.25;;;15.62
45034;BMP280;30771;47.988;-4.186;2022-10-24T07:01:45;99181.94;;;15.57
45034;BMP280;30771;47.988;-4.186;2022-10-24T07:04:10;99188.81;;;15.63
45034;BMP280;30771;47.988;-4.186;2022-10-24T07:06:36;99193.59;;;15.61
45034;BMP280;30771;47.988;-4.186;2022-10-24T07:09:04;99195.44;;;15.66
45034;BMP280;30771;47.988;-4.186;2022-10-24T07:11:30;99184.59;;;15.62
45034;BMP280;30771;47.988;-4.186;2022-10-24T07:13:55;99189.34;;;15.65
45034;BMP280;30771;47.988;-4.186;2022-10-24T07:16:21;99182.97;;;15.66
45034;BMP280;30771;47.988;-4.186;2022-10-24T07:18:46;99192.53;;;15.72
45034;BMP280;30771;47.988;-4.186;2022-10-24T07:21:14;99201.03;;;15.74
45034;BMP280;30771;47.988;-4.186;2022-10-24T07:23:39;99190.94;;;15.71
45034;BMP280;30771;47.988;-4.186;2022-10-24T07:26:11;99194.41;;;15.77
45034;BMP280;30771;47.988;-4.186;2022-10-24T07:28:38;99195.16;;;15.77
45034;BMP280;30771;47.988;-4.186;2022-10-24T07:31:04;99195.97;;;15.78
45034;BMP280;30771;47.988;-4.186;2022-10-24T07:33:30;99199.44;;;15.83
45034;BMP280;30771;47.988;-4.186;2022-10-24T07:35:55;99209.00;;;15.84
45034;BMP280;30771;47.988;-4.186;2022-10-24T07:38:21;99212.94;;;15.87
45034;BMP280;30771;47.988;-4.186;2022-10-24T07:40:46;99210.84;;;15.89
45034;BMP280;30771;47.988;-4.186;2022-10-24T07:43:12;99197.28;;;15.85
45034;BMP280;30771;47.988;-4.186;2022-10-24T07:45:38;99223.31;;;15.98
45034;BMP280;30771;47.988;-4.186;2022-10-24T07:48:04;99223.53;;;16.07
45034;BMP280;30771;47.988;-4.186;2022-10-24T07:50:30;99230.97;;;16.15
45034;BMP280;30771;47.988;-4.186;2022-10-24T07:52:55;99217.97;;;16.13
45034;BMP280;30771;47.988;-4.186;2022-10-24T07:55:20;99245.28;;;16.29
45034;BMP280;30771;47.988;-4.186;2022-10-24T07:57:45;99257.75;;;16.33
45034;BMP280;30771;47.988;-4.186;2022-10-24T08:00:11;99265.47;;;16.35
45034;BMP280;30771;47.988;-4.186;2022-10-24T08:02:37;99270.78;;;16.35
45034;BMP280;30771;47.988;-4.186;2022-10-24T08:05:02;99293.59;;;16.41
45034;BMP280;30771;47.988;-4.186;2022-10-24T08:07:27;99286.72;;;16.35
45034;BMP280;30771;47.988;-4.186;2022-10-24T08:09:53;99286.19;;;16.38
45034;BMP280;30771;47.988;-4.186;2022-10-24T08:12:18;99302.09;;;16.48
45034;BMP280;30771;47.988;-4.186;2022-10-24T08:14:43;99320.69;;;16.58
45034;BMP280;30771;47.988;-4.186;2022-10-24T08:17:09;99336.06;;;16.66
45034;BMP280;30771;47.988;-4.186;2022-10-24T08:19:35;99352.00;;;16.71
45034;BMP280;30771;47.988;-4.186;2022-10-24T08:22:01;99352.00;;;16.71
45034;BMP280;30771;47.988;-4.186;2022-10-24T08:24:27;99354.94;;;16.69
45034;BMP280;30771;47.988;-4.186;2022-10-24T08:26:52;99365.31;;;16.71
45034;BMP280;30771;47.988;-4.186;2022-10-24T08:29:17;99362.66;;;16.66
45034;BMP280;30771;47.988;-4.186;2022-10-24T08:31:42;99372.47;;;16.70
45034;BMP280;30771;47.988;-4.186;2022-10-24T08:34:09;99361.84;;;16.65
45034;BMP280;30771;47.988;-4.186;2022-10-24T08:36:34;99360.53;;;16.63
45034;BMP280;30771;47.988;-4.186;2022-10-24T08:39:00;99378.88;;;16.69
45034;BMP280;30771;47.988;-4.186;2022-10-24T08:41:38;99373.28;;;16.71
45034;BMP280;30771;47.988;-4.186;2022-10-24T08:44:32;99375.41;;;16.74
45034;BMP280;30771;47.988;-4.186;2022-10-24T08:47:05;99377.25;;;16.78
45034;BMP280;30771;47.988;-4.186;2022-10-24T08:49:56;99390.84;;;16.77
45034;BMP280;30771;47.988;-4.186;2022-10-24T08:52:29;99402.25;;;16.77
45034;BMP280;30771;47.988;-4.186;2022-10-24T08:54:58;99413.69;;;16.83
45034;BMP280;30771;47.988;-4.186;2022-10-24T08:57:29;99400.38;;;16.83
45034;BMP280;30771;47.988;-4.186;2022-10-24T09:00:02;99396.91;;;16.87
45034;BMP280;30771;47.988;-4.186;2022-10-24T09:02:35;99410.47;;;16.96
45034;BMP280;30771;47.988;-4.186;2022-10-24T09:05:08;99419.44;;;17.10
45034;BMP280;30771;47.988;-4.186;2022-10-24T09:07:34;99437.03;;;17.11
45034;BMP280;30771;47.988;-4.186;2022-10-24T09:10:16;99441.75;;;17.14
45034;BMP280;30771;47.988;-4.186;2022-10-24T09:12:43;99435.13;;;17.12
45034;BMP280;30771;47.988;-4.186;2022-10-24T09:15:18;99445.47;;;17.28
45034;BMP280;30771;47.988;-4.186;2022-10-24T09:17:45;99449.47;;;17.31
45034;BMP280;30771;47.988;-4.186;2022-10-24T09:22:46;99462.78;;;17.31
45034;BMP280;30771;47.988;-4.186;2022-10-24T09:25:14;99470.50;;;17.27
45034;BMP280;30771;47.988;-4.186;2022-10-24T09:27:40;99481.13;;;17.27
45034;BMP280;30771;47.988;-4.186;2022-10-24T09:30:10;99464.06;;;17.38
45034;BMP280;30771;47.988;-4.186;2022-10-24T09:32:39;99460.31;;;17.44
45034;BMP280;30771;47.988;-4.186;2022-10-24T09:35:10;99479.47;;;17.46
45034;BMP280;30771;47.988;-4.186;2022-10-24T09:37:51;99480.03;;;17.33
45034;BMP280;30771;47.988;-4.186;2022-10-24T09:40:17;99512.50;;;17.30
45034;BMP280;30771;47.988;-4.186;2022-10-24T09:43:21;99497.09;;;17.22
45034;BMP280;30771;47.988;-4.186;2022-10-24T09:45:50;99498.97;;;17.07
45034;BMP280;30771;47.988;-4.186;2022-10-24T09:48:38;99498.44;;;16.94
45034;BMP280;30771;47.988;-4.186;2022-10-24T09:51:16;99501.91;;;16.85
45034;BMP280;30771;47.988;-4.186;2022-10-24T09:56:36;99488.63;;;16.95
45034;BMP280;30771;47.988;-4.186;2022-10-24T09:59:18;99502.94;;;17.19
45034;BMP280;30771;47.988;-4.186;2022-10-24T10:01:43;99512.75;;;17.34
45034;BMP280;30771;47.988;-4.186;2022-10-24T10:04:15;99521.81;;;17.48
45034;BMP280;30771;47.988;-4.186;2022-10-24T10:06:46;99530.00;;;17.61
45034;BMP280;30771;47.988;-4.186;2022-10-24T10:09:14;99560.84;;;17.67
45034;BMP280;30771;47.988;-4.186;2022-10-24T10:11:40;99567.44;;;17.85
45034;BMP280;30771;47.988;-4.186;2022-10-24T10:14:20;99581.03;;;17.83
45034;BMP280;30771;47.988;-4.186;2022-10-24T10:16:57;99618.25;;;18.08
45034;BMP280;30771;47.988;-4.186;2022-10-24T10:19:23;99620.09;;;18.13
45034;BMP280;30771;47.988;-4.186;2022-10-24T10:22:03;99624.59;;;18.17
45034;BMP280;30771;47.988;-4.186;2022-10-24T10:27:00;99633.38;;;18.18
45034;BMP280;30771;47.988;-4.186;2022-10-24T10:29:26;99643.22;;;18.22
45034;BMP280;30771;47.988;-4.186;2022-10-24T10:32:18;99653.34;;;18.25
45034;BMP280;30771;47.988;-4.186;2022-10-24T10:34:54;99661.78;;;18.38
45034;BMP280;30771;47.988;-4.186;2022-10-24T10:37:30;99666.59;;;18.41
45034;BMP280;30771;47.988;-4.186;2022-10-24T10:40:36;99674.03;;;18.44
45034;BMP280;30771;47.988;-4.186;2022-10-24T10:43:21;99668.97;;;18.42
45034;BMP280;30771;47.988;-4.186;2022-10-24T10:51:26;99674.06;;;18.39
45034;BMP280;30771;47.988;-4.186;2022-10-24T11:02:02;99668.34;;;18.01
45034;BMP280;30771;47.988;-4.186;2022-10-24T11:04:58;99680.84;;;18.11
45034;BMP280;30771;47.988;-4.186;2022-10-24T11:07:37;99672.28;;;18.19
45034;BMP280;30771;47.988;-4.186;2022-10-24T11:10:10;99662.38;;;18.24
45034;BMP280;30771;47.988;-4.186;2022-10-24T11:12:40;99684.47;;;18.35
45034;BMP280;30771;47.988;-4.186;2022-10-24T11:22:49;99753.47;;;18.47
45034;BMP280;30771;47.988;-4.186;2022-10-24T11:25:25;99748.09;;;18.52
45034;BMP280;30771;47.988;-4.186;2022-10-24T11:28:01;99752.38;;;18.53
45034;BMP280;30771;47.988;-4.186;2022-10-24T11:30:39;99738.56;;;18.51
45034;BMP280;30771;47.988;-4.186;2022-10-24T11:33:13;99736.94;;;18.45
45034;BMP280;30771;47.988;-4.186;2022-10-24T11:35:51;99751.66;;;18.37
45034;BMP280;30771;47.988;-4.186;2022-10-24T11:38:22;99735.69;;;18.27
45034;BMP280;30771;47.988;-4.186;2022-10-24T11:40:49;99726.59;;;18.33
45034;BMP280;30771;47.988;-4.186;2022-10-24T11:43:34;99729.50;;;18.37
45034;BMP280;30771;47.988;-4.186;2022-10-24T11:46:22;99715.88;;;18.48
45034;BMP280;30771;47.988;-4.186;2022-10-24T11:51:33;99729.41;;;18.57
45034;BMP280;30771;47.988;-4.186;2022-10-24T11:54:12;99735.06;;;18.50
45034;BMP280;30771;47.988;-4.186;2022-10-24T11:56:49;99733.47;;;18.49
45034;BMP280;30771;47.988;-4.186;2022-10-24T11:59:17;99717.28;;;18.36
45034;BMP280;30771;47.988;-4.186;2022-10-24T12:12:56;99727.59;;;18.52
45034;BMP280;30771;47.988;-4.186;2022-10-24T12:18:29;99761.75;;;18.45
45034;BMP280;30771;47.988;-4.186;2022-10-24T12:21:00;99743.91;;;18.36
45034;BMP280;30771;47.988;-4.186;2022-10-24T12:23:26;99729.78;;;18.35
45034;BMP280;30771;47.988;-4.186;2022-10-24T12:28:33;99720.94;;;18.55
45034;BMP280;30771;47.988;-4.186;2022-10-24T12:33:40;99732.41;;;18.50
45034;BMP280;30771;47.988;-4.186;2022-10-24T12:36:06;99731.97;;;18.28
45034;BMP280;30771;47.988;-4.186;2022-10-24T12:45:54;99727.59;;;18.52
45034;BMP280;30771;47.988;-4.186;2022-10-24T12:53:38;99741.69;;;18.63
45034;BMP280;30771;47.988;-4.186;2022-10-24T12:56:12;99751.72;;;18.76
45034;BMP280;30771;47.988;-4.186;2022-10-24T12:58:40;99769.66;;;18.70
45034;BMP280;30771;47.988;-4.186;2022-10-24T13:01:10;99757.69;;;18.58
45034;BMP280;30771;47.988;-4.186;2022-10-24T13:11:58;99776.59;;;18.66
45034;BMP280;30771;47.988;-4.186;2022-10-24T13:20:16;99775.00;;;18.65
45034;BMP280;30771;47.988;-4.186;2022-10-24T13:22:43;99760.91;;;18.60
45034;BMP280;30771;47.988;-4.186;2022-10-24T13:25:29;99761.41;;;18.62
45034;BMP280;30771;47.988;-4.186;2022-10-24T13:30:46;99787.59;;;18.55
45034;BMP280;30771;47.988;-4.186;2022-10-24T13:38:36;99771.31;;;18.51
45034;BMP280;30771;47.988;-4.186;2022-10-24T13:41:03;99772.91;;;18.47
45034;BMP280;30771;47.988;-4.186;2022-10-24T13:43:29;99774.81;;;18.42
45034;BMP280;30771;47.988;-4.186;2022-10-24T13:45:59;99772.44;;;18.40
45034;BMP280;30771;47.988;-4.186;2022-10-24T13:48:31;99784.66;;;18.46
45034;BMP280;30771;47.988;-4.186;2022-10-24T13:51:16;99777.19;;;18.48
45034;BMP280;30771;47.988;-4.186;2022-10-24T13:53:54;99784.38;;;18.53
45034;BMP280;30771;47.988;-4.186;2022-10-24T13:56:21;99777.47;;;18.47
45034;BMP280;30771;47.988;-4.186;2022-10-24T13:58:46;99776.94;;;18.45
45034;BMP280;30771;47.988;-4.186;2022-10-24T14:01:24;99778.56;;;18.36
45034;BMP280;30771;47.988;-4.186;2022-10-24T14:03:52;99777.50;;;18.31
45034;BMP280;30771;47.988;-4.186;2022-10-24T14:06:26;99762.09;;;18.23
45034;BMP280;30771;47.988;-4.186;2022-10-24T14:08:54;99772.19;;;18.26
45034;BMP280;30771;47.988;-4.186;2022-10-24T14:11:23;99752.72;;;18.36
45034;BMP280;30771;47.988;-4.186;2022-10-24T14:13:54;99748.66;;;18.49
45034;BMP280;30771;47.988;-4.186;2022-10-24T14:16:26;99740.16;;;18.47
45034;BMP280;30771;47.988;-4.186;2022-10-24T14:19:15;99750.28;;;18.50
45034;BMP280;30771;47.988;-4.186;2022-10-24T14:21:45;99754.75;;;18.59
45034;BMP280;30771;47.988;-4.186;2022-10-24T14:24:18;99760.34;;;18.68
45034;BMP280;30771;47.988;-4.186;2022-10-24T14:26:45;99759.06;;;18.55
45034;BMP280;30771;47.988;-4.186;2022-10-24T14:29:25;99784.94;;;18.50
45034;BMP280;30771;47.988;-4.186;2022-10-24T14:31:59;99766.00;;;18.46
45034;BMP280;30771;47.988;-4.186;2022-10-24T14:34:26;99755.59;;;18.50
45034;BMP280;30771;47.988;-4.186;2022-10-24T14:36:52;99763.63;;;18.45
45034;BMP280;30771;47.988;-4.186;2022-10-24T14:39:19;99750.63;;;18.28
45034;BMP280;30771;47.988;-4.186;2022-10-24T14:41:45;99748.25;;;18.16
45034;BMP280;30771;47.988;-4.186;2022-10-24T14:44:12;99746.94;;;18.04
45034;BMP280;30771;47.988;-4.186;2022-10-24T14:46:42;99737.91;;;17.85
45034;BMP280;30771;47.988;-4.186;2022-10-24T14:51:46;99692.38;;;17.61
45034;BMP280;30771;47.988;-4.186;2022-10-24T14:54:21;99697.97;;;17.65
45034;BMP280;30771;47.988;-4.186;2022-10-24T14:56:47;99681.19;;;17.69
45034;BMP280;30771;47.988;-4.186;2022-10-24T14:59:28;99681.44;;;17.83
45034;BMP280;30771;47.988;-4.186;2022-10-24T15:02:28;99696.09;;;17.85
45034;BMP280;30771;47.988;-4.186;2022-10-24T15:07:43;99697.44;;;17.58
45034;BMP280;30771;47.988;-4.186;2022-10-24T15:15:31;99700.91;;;17.38
45034;BMP280;30771;47.988;-4.186;2022-10-24T15:18:06;99703.28;;;17.35
45034;BMP280;30771;47.988;-4.186;2022-10-24T15:20:35;99705.16;;;17.34
45034;BMP280;30771;47.988;-4.186;2022-10-24T15:23:03;99689.16;;;17.24
45034;BMP280;30771;47.988;-4.186;2022-10-24T15:25:33;99706.50;;;17.27
45034;BMP280;30771;47.988;-4.186;2022-10-24T15:28:00;99689.97;;;17.25
45034;BMP280;30771;47.988;-4.186;2022-10-24T15:30:29;99679.63;;;17.13
45034;BMP280;30771;47.988;-4.186;2022-10-24T15:32:57;99679.84;;;17.12
45034;BMP280;30771;47.988;-4.186;2022-10-24T15:35:23;99675.34;;;17.07
45034;BMP280;30771;47.988;-4.186;2022-10-24T15:37:54;99678.00;;;17.12
45034;BMP280;30771;47.988;-4.186;2022-10-24T15:40:23;99683.31;;;17.12
45034;BMP280;30771;47.988;-4.186;2022-10-24T15:42:49;99675.09;;;17.09
45034;BMP280;30771;47.988;-4.186;2022-10-24T15:45:15;99689.47;;;17.13
45034;BMP280;30771;47.988;-4.186;2022-10-24T15:47:41;99693.16;;;17.12
45034;BMP280;30771;47.988;-4.186;2022-10-24T15:50:07;99655.34;;;16.94
45034;BMP280;30771;47.988;-4.186;2022-10-24T15:52:33;99684.94;;;17.13
45034;BMP280;30771;47.988;-4.186;2022-10-24T15:54:58;99695.03;;;17.11
45034;BMP280;30771;47.988;-4.186;2022-10-24T15:57:24;99682.25;;;17.03